createdAt,value
2022-09-28T00:01:17.172Z,99273.06
2022-09-28T00:03:45.055Z,99271.50
2022-09-28T00:06:13.649Z,99270.47
2022-09-28T00:08:40.852Z,99273.06
2022-09-28T00:11:12.267Z,99268.69
2022-09-28T00:13:40.360Z,99263.50
2022-09-28T00:16:16.390Z,99259.13
2022-09-28T00:18:43.883Z,99258.31
2022-09-28T00:21:13.289Z,99260.91
2022-09-28T00:23:59.809Z,99258.53
2022-09-28T00:26:31.658Z,99256.72
2022-09-28T00:29:00.385Z,99255.13
2022-09-28T00:31:32.843Z,99258.91
2022-09-28T00:34:01.338Z,99256.53
2022-09-28T00:36:30.736Z,99260.72
2022-09-28T00:38:58.373Z,99252.94
2022-09-28T00:41:27.672Z,99247.75
2022-09-28T00:44:15.096Z,99252.13
2022-09-28T00:46:42.669Z,99246.78
2022-09-28T00:49:15.858Z,99245.97
2022-09-28T00:51:44.735Z,99244.34
2022-09-28T00:54:12.889Z,99236.59
2022-09-28T00:56:42.489Z,99241.78
2022-09-28T00:59:09.515Z,99235.59
2022-09-28T01:01:36.833Z,99237.97
2022-09-28T01:04:04.954Z,99235.38
2022-09-28T01:06:35.887Z,99234.00
2022-09-28T01:09:06.834Z,99239.00
2022-09-28T01:11:36.788Z,99230.22
2022-09-28T01:14:03.811Z,99238.78
2022-09-28T01:16:45.707Z,99229.63
2022-09-28T01:19:51.343Z,99227.84
2022-09-28T01:22:40.120Z,99230.41
2022-09-28T01:25:42.626Z,99226.22
2022-09-28T01:28:16.369Z,99227.84
2022-09-28T01:31:03.276Z,99223.44
2022-09-28T01:33:55.434Z,99225.25
2022-09-28T01:36:35.086Z,99230.81
2022-09-28T01:39:09.999Z,99227.25
2022-09-28T01:41:40.474Z,99224.66
2022-09-28T01:44:13.983Z,99231.41
2022-09-28T01:46:45.344Z,99227.03
2022-09-28T01:49:25.759Z,99228.81
2022-09-28T01:52:02.673Z,99223.41
2022-09-28T01:54:36.299Z,99219.84
2022-09-28T01:57:10.834Z,99210.28
2022-09-28T01:59:43.341Z,99211.06
2022-09-28T02:02:14.989Z,99219.63
2022-09-28T02:05:07.860Z,99214.44
2022-09-28T02:07:39.955Z,99213.66
2022-09-28T02:10:13.269Z,99211.06
2022-09-28T02:12:54.698Z,99205.28
2022-09-28T02:15:34.677Z,99202.91
2022-09-28T02:18:01.421Z,99208.88
2022-09-28T02:20:30.712Z,99207.09
2022-09-28T02:22:59.618Z,99208.09
2022-09-28T02:25:41.420Z,99210.09
2022-09-28T02:28:16.450Z,99214.25
2022-09-28T02:30:44.555Z,99215.47
2022-09-28T02:33:18.295Z,99214.84
2022-09-28T02:35:45.218Z,99216.66
2022-09-28T02:38:13.078Z,99218.25
2022-09-28T02:40:43.895Z,99221.84
2022-09-28T02:43:10.416Z,99222.03
2022-09-28T02:45:46.694Z,99224.44
2022-09-28T02:48:41.333Z,99231.19
2022-09-28T02:51:33.006Z,99223.25
2022-09-28T02:54:16.641Z,99220.66
2022-09-28T02:57:33.324Z,99226.59
2022-09-28T03:00:02.730Z,99222.44
2022-09-28T03:02:38.891Z,99228.81
2022-09-28T03:05:22.799Z,99235.78
2022-09-28T03:08:06.977Z,99241.56
2022-09-28T03:10:46.402Z,99239.97
2022-09-28T03:13:14.801Z,99242.75
2022-09-28T03:15:48.546Z,99237.97
2022-09-28T03:18:15.688Z,99238.97
2022-09-28T03:20:42.230Z,99243.16
2022-09-28T03:23:25.306Z,99238.97
2022-09-28T03:25:52.252Z,99242.16
2022-09-28T03:28:18.879Z,99248.94
2022-09-28T03:30:45.419Z,99245.56
2022-09-28T03:33:12.023Z,99241.34
2022-09-28T03:35:38.607Z,99237.19
2022-09-28T03:38:05.144Z,99237.78
2022-09-28T03:40:32.794Z,99239.75
2022-09-28T03:43:01.165Z,99235.81
2022-09-28T03:45:27.810Z,99236.56
2022-09-28T03:47:54.453Z,99239.16
2022-09-28T03:50:21.018Z,99249.13
2022-09-28T03:52:47.530Z,99245.75
2022-09-28T03:55:14.271Z,99239.75
2022-09-28T03:57:40.897Z,99242.16
2022-09-28T04:00:08.192Z,99235.97
2022-09-28T04:02:35.110Z,99242.94
2022-09-28T04:05:02.386Z,99237.00
2022-09-28T04:07:31.093Z,99232.59
2022-09-28T04:09:58.206Z,99241.16
2022-09-28T04:12:25.021Z,99236.19
2022-09-28T04:14:51.753Z,99237.16
2022-09-28T04:17:18.303Z,99234.00
2022-09-28T04:19:44.839Z,99235.19
2022-09-28T04:22:11.822Z,99245.53
2022-09-28T04:24:38.409Z,99235.59
2022-09-28T04:27:24.019Z,99239.75
2022-09-28T04:29:50.570Z,99241.75
2022-09-28T04:32:17.284Z,99243.75
2022-09-28T04:34:44.476Z,99251.72
2022-09-28T04:37:11.138Z,99250.91
2022-09-28T04:39:37.702Z,99245.16
2022-09-28T04:42:05.596Z,99244.50
2022-09-28T04:44:32.201Z,99248.50
2022-09-28T04:47:02.879Z,99240.13
2022-09-28T04:49:31.579Z,99241.13
2022-09-28T04:51:58.172Z,99241.91
2022-09-28T04:54:24.738Z,99250.50
2022-09-28T04:56:52.562Z,99244.94
2022-09-28T04:59:19.062Z,99247.31
2022-09-28T05:01:45.719Z,99244.50
2022-09-28T05:04:12.229Z,99249.69
2022-09-28T05:06:38.805Z,99250.09
2022-09-28T05:09:05.558Z,99250.69
2022-09-28T05:11:32.092Z,99240.94
2022-09-28T05:13:58.745Z,99241.53
2022-09-28T05:16:26.291Z,99243.09
2022-09-28T05:18:56.693Z,99250.09
2022-09-28T05:21:25.436Z,99257.06
2022-09-28T05:23:56.039Z,99257.06
2022-09-28T05:26:23.245Z,99251.88
2022-09-28T05:28:49.927Z,99257.22
2022-09-28T05:31:17.307Z,99257.81
2022-09-28T05:33:43.845Z,99257.63
2022-09-28T05:36:11.112Z,99255.22
2022-09-28T05:38:37.753Z,99256.22
2022-09-28T05:41:06.710Z,99258.81
2022-09-28T05:43:33.711Z,99256.41
2022-09-28T05:46:00.686Z,99253.44
2022-09-28T05:48:28.355Z,99258.59
2022-09-28T05:50:55.261Z,99256.81
2022-09-28T05:53:21.889Z,99265.19
2022-09-28T05:55:48.720Z,99256.63
2022-09-28T05:58:16.074Z,99264.97
2022-09-28T06:00:43.118Z,99270.16
2022-09-28T06:03:14.438Z,99270.94
2022-09-28T06:05:41.448Z,99270.34
2022-09-28T06:08:10.673Z,99268.53
2022-09-28T06:10:37.343Z,99266.75
2022-09-28T06:13:03.874Z,99271.53
2022-09-28T06:15:32.496Z,99273.91
2022-09-28T06:18:05.154Z,99266.94
2022-09-28T06:20:34.665Z,99276.13
2022-09-28T06:23:02.498Z,99273.91
2022-09-28T06:25:29.415Z,99281.50
2022-09-28T06:28:03.997Z,99278.13
2022-09-28T06:30:32.697Z,99275.91
2022-09-28T06:33:01.400Z,99283.53
2022-09-28T06:35:30.875Z,99283.31
2022-09-28T06:37:59.283Z,99288.91
2022-09-28T06:40:26.889Z,99301.06
2022-09-28T06:42:59.463Z,99301.28
2022-09-28T06:45:27.782Z,99302.47
2022-09-28T06:47:59.880Z,99304.47
2022-09-28T06:50:29.179Z,99310.03
2022-09-28T06:52:55.703Z,99303.88
2022-09-28T06:55:22.385Z,99306.28
2022-09-28T06:57:58.437Z,99305.28
2022-09-28T07:00:26.425Z,99311.88
2022-09-28T07:02:53.089Z,99317.44
2022-09-28T07:05:26.830Z,99314.09
2022-09-28T07:07:57.025Z,99317.47
2022-09-28T07:10:25.404Z,99324.06
2022-09-28T07:12:52.290Z,99325.44
2022-09-28T07:15:19.294Z,99329.84
2022-09-28T07:17:58.770Z,99323.84
2022-09-28T07:20:27.412Z,99328.84
2022-09-28T07:23:15.447Z,99327.47
2022-09-28T07:25:48.029Z,99334.66
2022-09-28T07:28:15.571Z,99334.47
2022-09-28T07:30:43.332Z,99337.47
2022-09-28T07:33:12.584Z,99338.44
2022-09-28T07:35:39.414Z,99341.22
2022-09-28T07:38:08.056Z,99345.03
2022-09-28T07:40:55.011Z,99339.84
2022-09-28T07:43:22.405Z,99351.22
2022-09-28T07:45:50.570Z,99349.22
2022-09-28T07:48:18.722Z,99352.38
2022-09-28T07:50:51.788Z,99363.97
2022-09-28T07:53:19.313Z,99358.97
2022-09-28T07:56:02.255Z,99357.56
2022-09-28T07:58:29.357Z,99364.31
2022-09-28T08:00:55.881Z,99359.75
2022-09-28T08:03:22.616Z,99369.53
2022-09-28T08:05:49.831Z,99366.50
2022-09-28T08:08:16.445Z,99370.09
2022-09-28T08:10:46.957Z,99372.88
2022-09-28T08:13:15.365Z,99381.88
2022-09-28T08:15:42.669Z,99378.47
2022-09-28T08:18:09.973Z,99384.44
2022-09-28T08:20:55.410Z,99382.44
2022-09-28T08:23:23.679Z,99386.63
2022-09-28T08:25:55.198Z,99387.22
2022-09-28T08:28:23.241Z,99391.41
2022-09-28T08:30:50.683Z,99394.97
2022-09-28T08:33:20.354Z,99391.19
2022-09-28T08:35:47.290Z,99392.94
2022-09-28T08:38:14.359Z,99395.53
2022-09-28T08:40:54.906Z,99400.13
2022-09-28T08:43:56.876Z,99399.16
2022-09-28T08:46:29.558Z,99394.34
2022-09-28T08:52:03.451Z,99401.09
2022-09-28T08:54:50.450Z,99401.47
2022-09-28T08:57:52.681Z,99405.28
2022-09-28T09:00:52.393Z,99409.88
2022-09-28T09:03:32.413Z,99415.44
2022-09-28T09:06:18.450Z,99419.22
2022-09-28T09:09:22.017Z,99422.00
2022-09-28T09:12:00.800Z,99423.59
2022-09-28T09:14:33.027Z,99421.78
2022-09-28T09:17:14.093Z,99418.94
2022-09-28T09:19:52.786Z,99423.69
2022-09-28T09:22:28.184Z,99425.28
2022-09-28T09:25:18.257Z,99427.91
2022-09-28T09:28:22.246Z,99427.06
2022-09-28T09:31:11.673Z,99435.97
2022-09-28T09:34:02.269Z,99427.28
2022-09-28T09:36:46.463Z,99433.56
2022-09-28T09:39:18.966Z,99434.03
2022-09-28T09:42:26.728Z,99436.84
2022-09-28T09:45:11.660Z,99434.72
2022-09-28T09:47:44.425Z,99441.69
2022-09-28T09:50:39.376Z,99444.84
2022-09-28T09:53:40.801Z,99446.84
2022-09-28T09:56:31.296Z,99443.25
2022-09-28T09:59:04.549Z,99441.09
2022-09-28T10:01:37.798Z,99446.88
2022-09-28T10:04:11.971Z,99448.22
2022-09-28T10:06:40.980Z,99439.50
2022-09-28T10:09:20.168Z,99445.06
2022-09-28T10:11:51.963Z,99445.63
2022-09-28T10:14:21.504Z,99446.13
2022-09-28T10:16:50.041Z,99441.00
2022-09-28T10:19:25.866Z,99435.75
2022-09-28T10:21:53.287Z,99438.03
2022-09-28T10:24:35.740Z,99441.19
2022-09-28T10:27:08.694Z,99441.59
2022-09-28T10:29:44.475Z,99449.09
2022-09-28T10:32:23.878Z,99448.91
2022-09-28T10:34:55.091Z,99442.84
2022-09-28T10:37:21.687Z,99445.16
2022-09-28T10:39:56.078Z,99450.53
2022-09-28T10:42:27.000Z,99448.47
2022-09-28T10:45:15.462Z,99450.56
2022-09-28T10:47:44.387Z,99451.28
2022-09-28T10:50:23.894Z,99448.34
2022-09-28T10:52:50.459Z,99450.41
2022-09-28T10:55:33.601Z,99442.16
2022-09-28T10:58:24.181Z,99448.53
2022-09-28T11:00:52.773Z,99451.78
2022-09-28T11:03:24.159Z,99453.38
2022-09-28T11:06:23.210Z,99459.84
2022-09-28T11:08:50.498Z,99454.25
2022-09-28T11:11:20.086Z,99459.00
2022-09-28T11:13:53.525Z,99458.88
2022-09-28T11:17:10.189Z,99455.47
2022-09-28T11:19:37.068Z,99460.72
2022-09-28T11:22:26.159Z,99457.97
2022-09-28T11:25:22.252Z,99451.06
2022-09-28T11:27:51.783Z,99458.78
2022-09-28T11:30:45.520Z,99448.94
2022-09-28T11:33:15.068Z,99455.63
2022-09-28T11:35:45.326Z,99455.97
2022-09-28T11:38:51.434Z,99460.09
2022-09-28T11:41:59.865Z,99462.91
2022-09-28T11:44:35.261Z,99468.72
2022-09-28T11:47:07.533Z,99457.81
2022-09-28T11:49:41.878Z,99460.41
2022-09-28T11:52:20.483Z,99464.41
2022-09-28T11:55:01.221Z,99461.78
2022-09-28T11:57:36.802Z,99462.69
2022-09-28T12:00:18.258Z,99457.38
2022-09-28T12:02:58.789Z,99457.59
2022-09-28T12:05:33.919Z,99451.91
2022-09-28T12:08:08.406Z,99452.38
2022-09-28T12:10:45.363Z,99456.69
2022-09-28T12:13:18.695Z,99450.22
2022-09-28T12:16:23.489Z,99458.94
2022-09-28T12:18:56.404Z,99452.34
2022-09-28T12:21:44.654Z,99455.06
2022-09-28T12:24:42.314Z,99448.03
2022-09-28T12:27:23.130Z,99448.94
2022-09-28T12:29:55.501Z,99448.06
2022-09-28T12:32:39.260Z,99446.34
2022-09-28T12:35:36.737Z,99445.22
2022-09-28T12:38:35.719Z,99447.94
2022-09-28T12:41:24.002Z,99445.31
2022-09-28T12:44:34.377Z,99447.25
2022-09-28T12:47:19.797Z,99436.63
2022-09-28T12:50:37.631Z,99438.59
2022-09-28T12:52:50.791Z,99432.22
2022-09-28T12:55:32.234Z,99434.59
2022-09-28T12:58:15.182Z,99431.63
2022-09-28T13:01:06.484Z,99426.41
2022-09-28T13:03:45.824Z,99431.19
2022-09-28T13:06:40.819Z,99430.75
2022-09-28T13:09:22.647Z,99441.31
2022-09-28T13:12:24.442Z,99443.25
2022-09-28T13:15:04.504Z,99438.72
2022-09-28T13:17:38.150Z,99436.81
2022-09-28T13:20:13.917Z,99430.44
2022-09-28T13:22:51.418Z,99441.13
2022-09-28T13:25:20.911Z,99430.66
2022-09-28T13:27:59.256Z,99435.00
2022-09-28T13:30:27.014Z,99425.56
2022-09-28T13:32:57.590Z,99430.34
2022-09-28T13:35:24.823Z,99432.81
2022-09-28T13:38:16.463Z,99437.59
2022-09-28T13:41:04.975Z,99436.56
2022-09-28T13:43:58.371Z,99433.75
2022-09-28T13:47:10.397Z,99440.91
2022-09-28T13:49:51.080Z,99438.63
2022-09-28T13:52:34.064Z,99447.16
2022-09-28T13:55:24.972Z,99446.13
2022-09-28T13:57:56.860Z,99443.16
2022-09-28T14:00:29.490Z,99451.09
2022-09-28T14:03:01.555Z,99451.91
2022-09-28T14:05:47.355Z,99446.09
2022-09-28T14:08:34.891Z,99449.13
2022-09-28T14:11:49.830Z,99445.28
2022-09-28T14:14:16.443Z,99443.25
2022-09-28T14:16:43.882Z,99454.41
2022-09-28T14:19:23.578Z,99450.31
2022-09-28T14:22:09.978Z,99452.72
2022-09-28T14:24:45.622Z,99456.91
2022-09-28T14:27:36.805Z,99454.66
2022-09-28T14:30:08.503Z,99456.47
2022-09-28T14:32:37.086Z,99457.72
2022-09-28T14:35:07.199Z,99456.78
2022-09-28T14:37:58.976Z,99450.69
2022-09-28T14:40:51.068Z,99448.94
2022-09-28T14:43:34.295Z,99455.88
2022-09-28T14:46:19.354Z,99445.75
2022-09-28T14:48:52.719Z,99452.13
2022-09-28T14:51:26.232Z,99452.34
2022-09-28T14:54:00.304Z,99443.81
2022-09-28T14:56:32.568Z,99445.75
2022-09-28T14:59:00.447Z,99446.44
2022-09-28T15:01:27.766Z,99448.38
2022-09-28T15:03:59.096Z,99444.63
2022-09-28T15:06:28.941Z,99451.69
2022-09-28T15:08:55.658Z,99455.31
2022-09-28T15:11:24.965Z,99449.41
2022-09-28T15:14:04.569Z,99454.63
2022-09-28T15:16:31.393Z,99458.81
2022-09-28T15:19:23.780Z,99462.69
2022-09-28T15:21:51.222Z,99464.72
2022-09-28T15:24:34.744Z,99465.41
2022-09-28T15:27:03.414Z,99468.47
2022-09-28T15:29:33.466Z,99462.69
2022-09-28T15:32:00.260Z,99465.78
2022-09-28T15:34:56.798Z,99470.44
2022-09-28T15:37:29.425Z,99469.28
2022-09-28T15:39:59.922Z,99468.16
2022-09-28T15:42:26.762Z,99472.69
2022-09-28T15:45:13.763Z,99476.09
2022-09-28T15:47:41.759Z,99472.69
2022-09-28T15:50:22.821Z,99477.91
2022-09-28T15:53:00.834Z,99482.91
2022-09-28T15:55:32.060Z,99482.56
2022-09-28T15:58:19.390Z,99482.25
2022-09-28T16:00:48.252Z,99480.06
2022-09-28T16:03:17.765Z,99480.97
2022-09-28T16:05:59.618Z,99495.06
2022-09-28T16:08:43.582Z,99493.34
2022-09-28T16:11:27.884Z,99497.19
2022-09-28T16:14:06.725Z,99496.84
2022-09-28T16:16:41.199Z,99504.44
2022-09-28T16:19:21.024Z,99500.31
2022-09-28T16:21:50.377Z,99499.38
2022-09-28T16:24:23.571Z,99499.03
2022-09-28T16:27:01.042Z,99500.72
2022-09-28T16:29:36.361Z,99497.94
2022-09-28T16:32:34.045Z,99508.13
2022-09-28T16:35:10.861Z,99507.03
2022-09-28T16:37:40.884Z,99509.16
2022-09-28T16:40:08.912Z,99508.09
2022-09-28T16:42:36.750Z,99507.81
2022-09-28T16:45:05.372Z,99519.88
2022-09-28T16:47:34.184Z,99514.97
2022-09-28T16:50:02.520Z,99522.88
2022-09-28T16:52:47.466Z,99517.94
2022-09-28T16:55:39.625Z,99526.63
2022-09-28T16:58:04.757Z,99533.47
2022-09-28T17:00:32.488Z,99539.56
2022-09-28T17:02:59.707Z,99534.41
2022-09-28T17:05:26.429Z,99532.63
2022-09-28T17:08:01.274Z,99526.28
2022-09-28T17:11:02.422Z,99536.53
2022-09-28T17:13:37.446Z,99539.16
2022-09-28T17:16:08.992Z,99543.44
2022-09-28T17:18:37.883Z,99554.66
2022-09-28T17:21:06.758Z,99554.31
2022-09-28T17:23:33.442Z,99566.34
2022-09-28T17:26:02.090Z,99574.78
2022-09-28T17:28:36.577Z,99574.03
2022-09-28T17:31:04.274Z,99580.25
2022-09-28T17:33:31.083Z,99579.06
2022-09-28T17:36:01.424Z,99578.28
2022-09-28T17:38:28.574Z,99582.72
2022-09-28T17:40:55.161Z,99582.59
2022-09-28T17:43:22.389Z,99583.78
2022-09-28T17:45:49.586Z,99584.59
2022-09-28T17:48:23.092Z,99592.63
2022-09-28T17:50:50.675Z,99601.84
2022-09-28T17:53:17.670Z,99600.44
2022-09-28T17:55:44.255Z,99592.06
2022-09-28T17:58:15.707Z,99605.69
2022-09-28T18:00:43.245Z,99596.09
2022-09-28T18:03:17.267Z,99596.50
2022-09-28T18:05:44.809Z,99592.31
2022-09-28T18:08:14.229Z,99602.34
2022-09-28T18:10:40.792Z,99591.34
2022-09-28T18:13:07.751Z,99596.13
2022-09-28T18:15:34.471Z,99595.94
2022-09-28T18:18:01.254Z,99591.97
2022-09-28T18:20:27.957Z,99590.97
2022-09-28T18:22:54.513Z,99590.56
2022-09-28T18:25:21.248Z,99586.59
2022-09-28T18:27:47.806Z,99592.78
2022-09-28T18:30:14.389Z,99583.59
2022-09-28T18:32:41.319Z,99586.19
2022-09-28T18:35:10.244Z,99580.41
2022-09-28T18:37:40.182Z,99585.00
2022-09-28T18:40:12.920Z,99586.81
2022-09-28T18:42:40.796Z,99589.78
2022-09-28T18:45:11.206Z,99585.03
2022-09-28T18:47:39.034Z,99599.63
2022-09-28T18:50:06.437Z,99599.63
2022-09-28T18:52:36.551Z,99596.81
2022-09-28T18:55:03.564Z,99604.44
2022-09-28T18:57:33.514Z,99597.81
2022-09-28T19:00:01.806Z,99604.00
2022-09-28T19:02:28.641Z,99605.59
2022-09-28T19:04:55.273Z,99598.63
2022-09-28T19:07:21.821Z,99603.81
2022-09-28T19:09:48.475Z,99603.81
2022-09-28T19:12:15.074Z,99607.41
2022-09-28T19:14:41.583Z,99602.41
2022-09-28T19:17:08.374Z,99601.78
2022-09-28T19:19:35.818Z,99603.78
2022-09-28T19:22:02.419Z,99601.63
2022-09-28T19:24:29.050Z,99606.19
2022-09-28T19:26:55.792Z,99609.22
2022-09-28T19:29:22.763Z,99610.41
2022-09-28T19:31:50.435Z,99607.22
2022-09-28T19:34:17.792Z,99604.22
2022-09-28T19:36:44.763Z,99606.22
2022-09-28T19:39:15.006Z,99606.59
2022-09-28T19:41:45.633Z,99606.22
2022-09-28T19:44:29.723Z,99611.78
2022-09-28T19:47:07.117Z,99608.59
2022-09-28T19:49:38.600Z,99614.81
2022-09-28T19:52:15.847Z,99609.41
2022-09-28T19:54:55.865Z,99613.19
2022-09-28T19:57:41.591Z,99620.56
2022-09-28T20:00:08.937Z,99618.56
2022-09-28T20:02:35.472Z,99623.00
2022-09-28T20:05:02.311Z,99620.78
2022-09-28T20:07:32.788Z,99628.94
2022-09-28T20:09:59.633Z,99633.75
2022-09-28T20:12:26.470Z,99634.13
2022-09-28T20:14:52.988Z,99643.91
2022-09-28T20:17:21.693Z,99641.72
2022-09-28T20:19:51.665Z,99643.31
2022-09-28T20:22:18.698Z,99647.91
2022-09-28T20:24:45.324Z,99647.28
2022-09-28T20:27:11.876Z,99649.47
2022-09-28T20:29:38.362Z,99651.84
2022-09-28T20:32:05.073Z,99659.03
2022-09-28T20:34:33.403Z,99658.00
2022-09-28T20:37:00.170Z,99663.38
2022-09-28T20:39:26.641Z,99656.63
2022-09-28T20:41:53.583Z,99655.22
2022-09-28T20:44:20.247Z,99662.78
2022-09-28T20:46:50.282Z,99658.16
2022-09-28T20:49:16.805Z,99668.91
2022-09-28T20:51:43.596Z,99668.31
2022-09-28T20:54:10.072Z,99665.31
2022-09-28T20:56:39.344Z,99669.09
2022-09-28T20:59:11.490Z,99675.84
2022-09-28T21:01:38.368Z,99671.03
2022-09-28T21:04:06.997Z,99671.59
2022-09-28T21:06:38.319Z,99671.00
2022-09-28T21:09:06.803Z,99672.97
2022-09-28T21:11:35.651Z,99683.72
2022-09-28T21:14:06.049Z,99667.16
2022-09-28T21:16:34.728Z,99672.91
2022-09-28T21:19:01.348Z,99670.69
2022-09-28T21:21:28.152Z,99675.44
2022-09-28T21:23:55.880Z,99682.59
2022-09-28T21:26:25.155Z,99679.59
2022-09-28T21:28:56.793Z,99677.38
2022-09-28T21:31:28.734Z,99683.91
2022-09-28T21:33:56.336Z,99682.50
2022-09-28T21:36:22.968Z,99683.88
2022-09-28T21:38:49.466Z,99682.47
2022-09-28T21:41:16.642Z,99684.66
2022-09-28T21:43:43.156Z,99682.41
2022-09-28T21:46:10.365Z,99687.97
2022-09-28T21:48:37.123Z,99693.72
2022-09-28T21:51:06.272Z,99690.88
2022-09-28T21:53:35.321Z,99694.63
2022-09-28T21:56:03.496Z,99697.44
2022-09-28T21:58:33.610Z,99692.59
2022-09-28T22:01:05.163Z,99701.38
2022-09-28T22:03:33.747Z,99701.75
2022-09-28T22:06:00.278Z,99701.34
2022-09-28T22:08:26.976Z,99704.09
2022-09-28T22:11:12.873Z,99703.31
2022-09-28T22:13:50.797Z,99707.06
2022-09-28T22:16:19.279Z,99709.00
2022-09-28T22:18:46.293Z,99710.00
2022-09-28T22:21:18.987Z,99713.56
2022-09-28T22:23:45.711Z,99707.63
2022-09-28T22:26:19.444Z,99712.16
2022-09-28T22:28:48.126Z,99714.94
2022-09-28T22:31:15.966Z,99715.13
2022-09-28T22:33:42.669Z,99723.88
2022-09-28T22:36:09.638Z,99724.69
2022-09-28T22:38:36.689Z,99733.41
2022-09-28T22:41:04.064Z,99734.06
2022-09-28T22:43:31.124Z,99729.50
2022-09-28T22:46:02.088Z,99726.91
2022-09-28T22:48:28.923Z,99726.72
2022-09-28T22:50:55.450Z,99732.69
2022-09-28T22:53:22.028Z,99731.06
2022-09-28T22:55:48.508Z,99729.31
2022-09-28T22:58:15.050Z,99729.31
2022-09-28T23:00:42.450Z,99727.69
2022-09-28T23:03:09.396Z,99726.72
2022-09-28T23:05:36.381Z,99727.69
2022-09-28T23:08:03.270Z,99721.91
2022-09-28T23:10:29.824Z,99730.47
2022-09-28T23:12:56.884Z,99732.44
2022-09-28T23:15:23.427Z,99720.06
2022-09-28T23:17:53.895Z,99718.63
2022-09-28T23:20:23.891Z,99734.16
2022-09-28T23:22:51.097Z,99727.38
2022-09-28T23:25:18.553Z,99732.53
2022-09-28T23:27:49.868Z,99722.38
2022-09-28T23:30:18.596Z,99721.59
2022-09-28T23:32:45.679Z,99723.38
2022-09-28T23:35:13.662Z,99730.34
2022-09-28T23:37:40.416Z,99731.16
2022-09-28T23:40:07.929Z,99731.31
2022-09-28T23:42:35.523Z,99728.72
2022-09-28T23:45:02.034Z,99732.94
2022-09-28T23:47:29.288Z,99739.88
2022-09-28T23:49:55.810Z,99738.28
2022-09-28T23:52:22.582Z,99734.09
2022-09-28T23:54:49.080Z,99741.06
2022-09-28T23:57:15.817Z,99738.66
2022-09-28T23:59:42.331Z,99740.44
